EGGD - Bristol-Lulsgate
Distance from station: E 5mi, 14km
Updated: 06/20/2018 8:20am
Mostly Cloudy
Mostly Cloudy
 Wind from W
Wind: W 14 mph , 22 km/h
Temperature: 61°F , 16°C
Dew Point: 61°F , 16°C
Humidity: 100%
Barometer: 30.12 inHg , 1020 hPa
Clouds: Mostly Cloudy
Visibility: 6 miles , 10 km
Cloud details: Mostly Cloudy 400 ft
Mostly Cloudy 1100 ft
2018/06/20 15:20 EGGD 201520Z 27012KT 9999 8000SE BKN004 BKN011 16/16 Q1020